createdAt,value
2018-05-12T00:00:18.478Z,101099.91
2018-05-12T00:02:46.824Z,101091.31
2018-05-12T00:05:15.169Z,101086.14
2018-05-12T00:07:43.520Z,101089.58
2018-05-12T00:10:11.857Z,101083.14
2018-05-12T00:12:40.217Z,101080.98
2018-05-12T00:15:08.561Z,101081.43
2018-05-12T00:17:36.913Z,101077.13
2018-05-12T00:20:05.249Z,101069.83
2018-05-12T00:22:33.609Z,101071.09
2018-05-12T00:25:01.949Z,101070.25
2018-05-12T00:27:30.306Z,101075.40
2018-05-12T00:29:58.638Z,101072.80
2018-05-12T00:32:26.995Z,101074.05
2018-05-12T00:34:55.333Z,101073.19
2018-05-12T00:37:23.688Z,101074.47
2018-05-12T00:39:52.021Z,101077.48
2018-05-12T00:42:20.385Z,101074.04
2018-05-12T00:44:48.739Z,101069.34
2018-05-12T00:47:17.072Z,101074.03
2018-05-12T00:49:45.410Z,101072.28
2018-05-12T00:52:13.760Z,101073.19
2018-05-12T00:54:42.101Z,101072.73
2018-05-12T00:57:10.461Z,101066.70
2018-05-12T00:59:38.801Z,101064.58
2018-05-12T01:02:07.165Z,101067.58
2018-05-12T01:04:35.501Z,101064.16
2018-05-12T01:07:03.859Z,101067.16
2018-05-12T01:09:32.192Z,101060.70
2018-05-12T01:12:00.553Z,101053.81
2018-05-12T01:14:28.889Z,101052.94
2018-05-12T01:16:57.250Z,101051.22
2018-05-12T01:19:25.604Z,101046.05
2018-05-12T01:21:53.957Z,101053.78
2018-05-12T01:24:22.292Z,101058.48
2018-05-12T01:26:50.648Z,101053.70
2018-05-12T01:29:18.984Z,101052.00
2018-05-12T01:31:47.349Z,101045.16
2018-05-12T01:34:15.695Z,101054.17
2018-05-12T01:36:44.032Z,101051.61
2018-05-12T01:39:12.377Z,101058.90
2018-05-12T01:41:40.709Z,101051.18
2018-05-12T01:44:09.065Z,101049.04
2018-05-12T01:46:37.403Z,101050.34
2018-05-12T01:49:05.753Z,101052.92
2018-05-12T01:51:34.090Z,101052.04
2018-05-12T01:54:02.449Z,101051.63
2018-05-12T01:56:30.782Z,101052.50
2018-05-12T01:58:59.132Z,101049.91
2018-05-12T02:01:27.460Z,101049.44
2018-05-12T02:03:55.813Z,101042.14
2018-05-12T02:06:24.145Z,101050.26
2018-05-12T02:08:52.495Z,101049.36
2018-05-12T02:11:20.829Z,101048.92
2018-05-12T02:13:49.184Z,101054.47
2018-05-12T02:16:17.520Z,101050.20
2018-05-12T02:18:45.883Z,101053.56
2018-05-12T02:21:14.221Z,101054.04
2018-05-12T02:23:42.569Z,101053.54
2018-05-12T02:26:10.905Z,101052.69
2018-05-12T02:28:39.255Z,101057.42
2018-05-12T02:31:07.588Z,101059.55
2018-05-12T02:33:35.934Z,101056.91
2018-05-12T02:36:04.265Z,101055.62
2018-05-12T02:38:32.616Z,101056.94
2018-05-12T02:41:00.950Z,101064.67
2018-05-12T02:43:29.300Z,101063.45
2018-05-12T02:45:57.637Z,101060.45
2018-05-12T02:48:25.988Z,101062.51
2018-05-12T02:50:54.333Z,101059.88
2018-05-12T02:53:22.689Z,101055.59
2018-05-12T02:55:51.027Z,101057.25
2018-05-12T02:58:19.399Z,101062.27
2018-05-12T03:00:47.725Z,101053.67
2018-05-12T03:03:16.076Z,101054.58
2018-05-12T03:05:44.408Z,101050.22
2018-05-12T03:08:12.765Z,101051.87
2018-05-12T03:10:41.102Z,101053.91
2018-05-12T03:13:09.452Z,101047.88
2018-05-12T03:15:37.790Z,101044.00
2018-05-12T03:18:06.148Z,101045.22
2018-05-12T03:20:34.481Z,101049.55
2018-05-12T03:23:02.840Z,101040.22
2018-05-12T03:25:31.168Z,101040.22
2018-05-12T03:27:59.526Z,101044.49
2018-05-12T03:30:27.864Z,101042.80
2018-05-12T03:32:56.208Z,101039.00
2018-05-12T03:35:24.540Z,101038.09
2018-05-12T03:37:52.877Z,101043.33
2018-05-12T03:40:21.230Z,101042.05
2018-05-12T03:42:49.561Z,101042.05
2018-05-12T03:45:17.921Z,101044.66
2018-05-12T03:47:46.252Z,101037.72
2018-05-12T03:50:14.647Z,101038.06
2018-05-12T03:52:42.928Z,101039.33
2018-05-12T03:55:11.285Z,101041.37
2018-05-12T03:57:39.621Z,101035.32
2018-05-12T04:00:07.978Z,101037.54
2018-05-12T04:02:36.309Z,101038.42
2018-05-12T04:05:16.545Z,101038.02
2018-05-12T04:07:56.769Z,101040.22
2018-05-12T04:10:42.460Z,101042.30
2018-05-12T04:13:10.800Z,101043.59
2018-05-12T04:15:39.166Z,101042.22
2018-05-12T04:18:07.492Z,101044.83
2018-05-12T04:20:35.844Z,101041.83
2018-05-12T04:23:04.185Z,101043.17
2018-05-12T04:25:32.552Z,101041.48
2018-05-12T04:28:00.895Z,101038.13
2018-05-12T04:30:29.247Z,101039.34
2018-05-12T04:32:57.581Z,101041.11
2018-05-12T04:35:25.952Z,101044.58
2018-05-12T04:37:54.285Z,101048.88
2018-05-12T04:40:22.636Z,101053.20
2018-05-12T04:42:50.971Z,101045.15
2018-05-12T04:45:19.329Z,101047.31
2018-05-12T04:47:47.667Z,101045.20
2018-05-12T04:50:16.013Z,101043.91
2018-05-12T04:52:44.340Z,101047.34
2018-05-12T04:55:12.692Z,101047.77
2018-05-12T04:57:41.026Z,101052.50
2018-05-12T05:00:09.377Z,101056.79
2018-05-12T05:02:37.717Z,101059.36
2018-05-12T05:05:06.069Z,101051.72
2018-05-12T05:07:34.408Z,101049.59
2018-05-12T05:10:02.753Z,101055.56
2018-05-12T05:12:31.084Z,101056.48
2018-05-12T05:14:59.436Z,101053.06
2018-05-12T05:17:27.780Z,101059.91
2018-05-12T05:19:56.132Z,101059.05
2018-05-12T05:22:24.465Z,101054.83
2018-05-12T05:24:52.819Z,101061.23
2018-05-12T05:27:21.140Z,101065.54
2018-05-12T05:29:49.512Z,101065.55
2018-05-12T05:32:17.846Z,101062.11
2018-05-12T05:34:46.200Z,101062.53
2018-05-12T05:37:14.536Z,101069.48
2018-05-12T05:39:42.893Z,101063.05
2018-05-12T05:42:11.221Z,101070.35
2018-05-12T05:44:39.576Z,101062.22
2018-05-12T05:47:07.917Z,101063.05
2018-05-12T05:49:36.269Z,101069.52
2018-05-12T05:52:04.606Z,101073.40
2018-05-12T05:54:32.953Z,101073.87
2018-05-12T05:57:01.302Z,101069.09
2018-05-12T05:59:29.632Z,101075.55
2018-05-12T06:01:57.988Z,101076.41
2018-05-12T06:04:26.350Z,101079.86
2018-05-12T06:06:54.771Z,101076.44
2018-05-12T06:09:23.040Z,101076.48
2018-05-12T06:11:51.377Z,101070.08
2018-05-12T06:14:19.707Z,101068.91
2018-05-12T06:16:48.056Z,101060.72
2018-05-12T06:19:16.393Z,101067.50
2018-05-12T06:21:44.740Z,101067.32
2018-05-12T06:24:13.076Z,101064.64
2018-05-12T06:26:41.438Z,101072.75
2018-05-12T06:29:09.769Z,101064.57
2018-05-12T06:31:38.131Z,101068.64
2018-05-12T06:34:06.452Z,101073.89
2018-05-12T06:36:34.809Z,101072.62
2018-05-12T06:39:03.151Z,101070.84
2018-05-12T06:41:31.497Z,101067.34
2018-05-12T06:43:59.824Z,101068.52
2018-05-12T06:46:28.184Z,101069.88
2018-05-12T06:48:56.514Z,101072.16
2018-05-12T06:51:24.996Z,101072.25
2018-05-12T06:53:53.312Z,101072.72
2018-05-12T06:56:21.678Z,101074.02
2018-05-12T06:58:50.580Z,101068.03
2018-05-12T07:01:18.949Z,101074.09
2018-05-12T07:03:47.269Z,101073.23
2018-05-12T07:06:15.637Z,101073.67
2018-05-12T07:08:43.996Z,101068.11
2018-05-12T07:11:12.352Z,101074.09
2018-05-12T07:13:40.685Z,101068.95
2018-05-12T07:16:09.045Z,101067.64
2018-05-12T07:18:37.389Z,101064.20
2018-05-12T07:21:05.749Z,101064.20
2018-05-12T07:23:34.082Z,101063.30
2018-05-12T07:26:02.476Z,101068.47
2018-05-12T07:28:30.812Z,101068.48
2018-05-12T07:30:59.182Z,101068.88
2018-05-12T07:33:27.529Z,101063.71
2018-05-12T07:35:55.880Z,101069.26
2018-05-12T07:38:24.225Z,101070.47
2018-05-12T07:40:52.581Z,101068.27
2018-05-12T07:43:20.922Z,101062.55
2018-05-12T07:45:49.684Z,101066.80
2018-05-12T07:48:18.026Z,101062.84
2018-05-12T07:50:46.381Z,101061.79
2018-05-12T07:53:14.721Z,101062.08
2018-05-12T07:55:43.077Z,101052.50
2018-05-12T07:58:11.416Z,101054.83
2018-05-12T08:00:39.808Z,101054.88
2018-05-12T08:03:08.128Z,101061.41
2018-05-12T08:05:37.130Z,101057.52
2018-05-12T08:08:05.464Z,101060.64
2018-05-12T08:10:33.828Z,101063.33
2018-05-12T08:13:02.169Z,101055.47
2018-05-12T08:15:30.504Z,101051.15
2018-05-12T08:17:58.860Z,101051.53
2018-05-12T08:20:27.201Z,101053.58
2018-05-12T08:22:55.561Z,101047.03
2018-05-12T08:25:24.001Z,101049.12
2018-05-12T08:27:52.365Z,101047.83
2018-05-12T08:30:20.703Z,101042.96
2018-05-12T08:32:49.064Z,101040.22
2018-05-12T08:35:17.400Z,101046.05
2018-05-12T08:37:45.765Z,101043.84
2018-05-12T08:40:14.101Z,101040.50
2018-05-12T08:42:42.468Z,101047.72
2018-05-12T08:45:11.580Z,101039.81
2018-05-12T08:47:39.953Z,101038.66
2018-05-12T08:50:08.286Z,101042.33
2018-05-12T08:52:36.909Z,101037.05
2018-05-12T08:55:05.464Z,101039.38
2018-05-12T08:57:34.135Z,101040.27
2018-05-12T09:00:02.771Z,101037.92
2018-05-12T09:02:31.484Z,101039.47
2018-05-12T09:05:00.183Z,101039.39
2018-05-12T09:07:28.978Z,101033.98
2018-05-12T09:09:57.664Z,101030.91
2018-05-12T09:12:26.122Z,101031.69
2018-05-12T09:14:54.792Z,101027.14
2018-05-12T09:17:23.144Z,101032.13
2018-05-12T09:19:51.476Z,101022.89
2018-05-12T09:22:19.852Z,101033.44
2018-05-12T09:24:48.201Z,101027.43
2018-05-12T09:27:16.557Z,101030.64
2018-05-12T09:29:44.914Z,101024.50
2018-05-12T09:32:13.260Z,101025.73
2018-05-12T09:34:41.601Z,101027.45
2018-05-12T09:37:10.043Z,101019.66
2018-05-12T09:39:38.338Z,101013.76
2018-05-12T09:42:06.662Z,101009.56
2018-05-12T09:44:34.999Z,101016.45
2018-05-12T09:47:03.349Z,101015.73
2018-05-12T09:49:31.688Z,101010.49
2018-05-12T09:52:00.045Z,101014.74
2018-05-12T09:54:28.382Z,101015.65
2018-05-12T09:56:56.724Z,101014.42
2018-05-12T09:59:25.133Z,101008.25
2018-05-12T10:01:53.416Z,101010.05
2018-05-12T10:04:21.759Z,101011.19
2018-05-12T10:06:50.112Z,101003.16
2018-05-12T10:09:18.444Z,101006.69
2018-05-12T10:11:46.800Z,101000.09
2018-05-12T10:14:15.132Z,100998.11
2018-05-12T10:16:43.457Z,101005.61
2018-05-12T10:19:11.800Z,101003.34
2018-05-12T10:21:40.124Z,100999.73
2018-05-12T10:24:08.477Z,100993.36
2018-05-12T10:26:36.800Z,100993.11
2018-05-12T10:29:05.144Z,100994.42
2018-05-12T10:31:33.472Z,100985.20
2018-05-12T10:34:01.829Z,100984.58
2018-05-12T10:36:30.158Z,100985.40
2018-05-12T10:38:58.524Z,100987.52
2018-05-12T10:41:26.833Z,100981.30
2018-05-12T10:43:55.676Z,100981.09
2018-05-12T10:46:24.008Z,100975.97
2018-05-12T10:48:52.365Z,100979.75
2018-05-12T10:51:20.704Z,100967.97
2018-05-12T10:53:49.056Z,100970.27
2018-05-12T10:56:17.396Z,100962.27
2018-05-12T10:58:45.744Z,100966.56
2018-05-12T11:01:14.156Z,100956.08
2018-05-12T11:03:42.840Z,100958.06
2018-05-12T11:06:11.176Z,100963.10
2018-05-12T11:08:39.525Z,100957.47
2018-05-12T11:11:07.872Z,100959.22
2018-05-12T11:13:36.454Z,100955.05
2018-05-12T11:16:05.100Z,100947.49
2018-05-12T11:18:33.335Z,100942.13
2018-05-12T11:21:03.393Z,100946.77
2018-05-12T11:23:32.015Z,100943.71
2018-05-12T11:26:00.389Z,100941.03
2018-05-12T11:28:28.785Z,100938.52
2018-05-12T11:30:57.247Z,100931.33
2018-05-12T11:33:25.625Z,100926.02
2018-05-12T11:35:53.964Z,100929.20
2018-05-12T11:38:22.955Z,100931.95
2018-05-12T11:40:51.276Z,100923.86
2018-05-12T11:43:21.465Z,100929.00
2018-05-12T11:45:49.860Z,100921.89
2018-05-12T11:48:19.132Z,100917.44
2018-05-12T11:50:47.469Z,100917.34
2018-05-12T11:53:15.825Z,100921.67
2018-05-12T11:55:44.160Z,100915.89
2018-05-12T11:58:12.516Z,100913.09
2018-05-12T12:00:40.844Z,100910.57
2018-05-12T12:03:09.204Z,100905.76
2018-05-12T12:05:37.539Z,100897.80
2018-05-12T12:08:05.901Z,100902.94
2018-05-12T12:10:34.619Z,100902.40
2018-05-12T12:13:02.969Z,100897.34
2018-05-12T12:15:31.300Z,100901.45
2018-05-12T12:17:59.669Z,100897.85
2018-05-12T12:20:28.008Z,100894.33
2018-05-12T12:22:56.340Z,100890.06
2018-05-12T12:25:24.705Z,100885.64
2018-05-12T12:27:53.034Z,100878.80
2018-05-12T12:30:21.385Z,100881.71
2018-05-12T12:32:49.725Z,100880.38
2018-05-12T12:35:18.077Z,100892.69
2018-05-12T12:37:46.408Z,100886.22
2018-05-12T12:40:14.764Z,100882.44
2018-05-12T12:42:43.092Z,100874.08
2018-05-12T12:45:11.493Z,100877.97
2018-05-12T12:47:39.810Z,100874.13
2018-05-12T12:50:08.147Z,100869.95
2018-05-12T12:52:36.478Z,100862.23
2018-05-12T12:55:04.824Z,100863.19
2018-05-12T12:57:33.157Z,100858.41
2018-05-12T13:00:01.518Z,100857.16
2018-05-12T13:02:29.905Z,100852.83
2018-05-12T13:04:58.210Z,100846.27
2018-05-12T13:07:26.552Z,100848.98
2018-05-12T13:09:54.908Z,100846.39
2018-05-12T13:12:23.240Z,100848.03
2018-05-12T13:14:51.596Z,100845.28
2018-05-12T13:17:19.928Z,100836.88
2018-05-12T13:19:48.287Z,100845.71
2018-05-12T13:22:16.621Z,100833.84
2018-05-12T13:24:44.980Z,100827.13
2018-05-12T13:27:13.325Z,100828.07
2018-05-12T13:29:41.683Z,100831.06
2018-05-12T13:32:10.009Z,100825.55
2018-05-12T13:34:38.380Z,100826.46
2018-05-12T13:37:06.721Z,100826.81
2018-05-12T13:39:35.080Z,100819.36
2018-05-12T13:42:03.417Z,100819.58
2018-05-12T13:44:31.779Z,100818.18
2018-05-12T13:47:00.112Z,100809.63
2018-05-12T13:49:28.460Z,100819.59
2018-05-12T13:51:56.801Z,100812.59
2018-05-12T13:54:25.192Z,100810.94
2018-05-12T13:56:53.538Z,100810.78
2018-05-12T13:59:21.853Z,100803.80
2018-05-12T14:01:50.785Z,100806.77
2018-05-12T14:04:19.142Z,100812.26
2018-05-12T14:06:47.477Z,100791.41
2018-05-12T14:09:15.834Z,100793.27
2018-05-12T14:11:44.169Z,100794.77
2018-05-12T14:14:12.520Z,100794.43
2018-05-12T14:16:40.860Z,100800.59
2018-05-12T14:19:09.221Z,100797.27
2018-05-12T14:21:38.331Z,100796.81
2018-05-12T14:24:06.661Z,100799.45
2018-05-12T14:26:35.004Z,100785.39
2018-05-12T14:29:03.337Z,100793.25
2018-05-12T14:31:31.697Z,100792.11
2018-05-12T14:34:00.033Z,100796.59
2018-05-12T14:36:28.397Z,100796.39
2018-05-12T14:38:56.724Z,100789.48
2018-05-12T14:41:26.072Z,100789.06
2018-05-12T14:43:54.440Z,100789.84
2018-05-12T14:46:22.813Z,100784.70
2018-05-12T14:48:51.157Z,100787.97
2018-05-12T14:51:19.541Z,100784.52
2018-05-12T14:53:47.898Z,100796.78
2018-05-12T14:56:16.364Z,100791.53
2018-05-12T14:58:44.704Z,100785.73
2018-05-12T15:01:13.057Z,100785.05
2018-05-12T15:03:41.397Z,100781.84
2018-05-12T15:06:09.753Z,100777.64
2018-05-12T15:08:38.092Z,100775.95
2018-05-12T15:11:06.447Z,100778.25
2018-05-12T15:13:34.784Z,100770.44
2018-05-12T15:16:03.141Z,100772.08
2018-05-12T15:18:31.472Z,100769.29
2018-05-12T15:20:59.835Z,100763.89
2018-05-12T15:23:28.167Z,100762.20
2018-05-12T15:25:56.556Z,100757.78
2018-05-12T15:28:24.861Z,100764.36
2018-05-12T15:30:53.221Z,100754.81
2018-05-12T15:33:21.564Z,100756.88
2018-05-12T15:35:49.926Z,100751.89
2018-05-12T15:38:18.327Z,100749.81
2018-05-12T15:40:46.668Z,100747.66
2018-05-12T15:43:15.002Z,100742.50
2018-05-12T15:45:43.389Z,100743.58
2018-05-12T15:48:11.692Z,100747.73
2018-05-12T15:50:40.053Z,100744.53
2018-05-12T15:53:08.387Z,100737.48
2018-05-12T15:55:36.745Z,100739.83
2018-05-12T15:58:05.081Z,100738.41
2018-05-12T16:00:33.446Z,100736.01
2018-05-12T16:03:01.786Z,100733.38
2018-05-12T16:05:30.129Z,100735.37
2018-05-12T16:07:58.470Z,100735.55
2018-05-12T16:10:26.851Z,100730.89
2018-05-12T16:12:55.200Z,100728.14
2018-05-12T16:15:23.566Z,100725.28
2018-05-12T16:17:51.924Z,100727.19
2018-05-12T16:20:20.317Z,100723.38
2018-05-12T16:22:48.640Z,100733.25
2018-05-12T16:25:16.994Z,100729.76
2018-05-12T16:27:45.353Z,100729.55
2018-05-12T16:30:13.692Z,100725.58
2018-05-12T16:32:42.053Z,100724.81
2018-05-12T16:35:10.393Z,100725.67
2018-05-12T16:37:38.753Z,100726.12
2018-05-12T16:40:07.104Z,100719.25
2018-05-12T16:42:35.457Z,100712.72
2018-05-12T16:45:04.157Z,100720.50
2018-05-12T16:47:32.914Z,100709.70
2018-05-12T16:50:01.605Z,100708.00
2018-05-12T16:52:30.360Z,100709.74
2018-05-12T16:54:59.126Z,100709.72
2018-05-12T16:57:27.761Z,100714.98
2018-05-12T16:59:56.252Z,100711.52
2018-05-12T17:02:25.049Z,100712.36
2018-05-12T17:04:53.768Z,100710.63
2018-05-12T17:07:22.516Z,100711.08
2018-05-12T17:09:50.987Z,100710.05
2018-05-12T17:12:19.737Z,100706.05
2018-05-12T17:14:48.421Z,100706.58
2018-05-12T17:17:17.057Z,100704.10
2018-05-12T17:19:45.693Z,100700.38
2018-05-12T17:22:14.462Z,100697.49
2018-05-12T17:24:43.174Z,100688.62
2018-05-12T17:27:12.638Z,100692.52
2018-05-12T17:29:41.295Z,100692.52
2018-05-12T17:32:09.759Z,100684.64
2018-05-12T17:34:38.443Z,100688.70
2018-05-12T17:37:07.190Z,100684.90
2018-05-12T17:39:35.956Z,100683.70
2018-05-12T17:42:04.728Z,100684.08
2018-05-12T17:44:33.333Z,100684.51
2018-05-12T17:47:01.987Z,100683.80
2018-05-12T17:49:30.660Z,100683.04
2018-05-12T17:51:59.458Z,100683.14
2018-05-12T17:54:28.995Z,100680.72
2018-05-12T17:56:57.830Z,100680.11
2018-05-12T17:59:26.619Z,100673.70
2018-05-12T18:01:55.363Z,100674.20
2018-05-12T18:04:24.129Z,100672.34
2018-05-12T18:06:53.004Z,100677.23
2018-05-12T18:09:21.360Z,100666.90
2018-05-12T18:11:49.725Z,100669.92
2018-05-12T18:14:18.056Z,100671.00
2018-05-12T18:16:46.408Z,100667.02
2018-05-12T18:19:15.141Z,100668.16
2018-05-12T18:21:43.876Z,100669.19
2018-05-12T18:24:12.570Z,100666.18
2018-05-12T18:26:41.351Z,100666.74
2018-05-12T18:29:10.299Z,100671.02
2018-05-12T18:31:39.041Z,100671.50
2018-05-12T18:34:07.689Z,100667.78
2018-05-12T18:36:36.425Z,100667.42
2018-05-12T18:39:05.953Z,100670.28
2018-05-12T18:41:34.716Z,100673.27
2018-05-12T18:44:03.597Z,100668.08
2018-05-12T18:46:32.265Z,100667.22
2018-05-12T18:49:00.998Z,100671.17
2018-05-12T18:51:29.672Z,100671.86
2018-05-12T18:53:58.358Z,100671.17
2018-05-12T18:56:27.042Z,100669.88
2018-05-12T18:58:55.889Z,100676.80
2018-05-12T19:01:24.464Z,100678.52
2018-05-12T19:03:53.078Z,100690.34
2018-05-12T19:06:21.930Z,100685.35
2018-05-12T19:08:51.338Z,100689.62
2018-05-12T19:11:20.007Z,100684.19
2018-05-12T19:13:48.733Z,100685.09
2018-05-12T19:16:17.369Z,100684.78
2018-05-12T19:18:46.137Z,100683.86
2018-05-12T19:21:14.740Z,100681.48
2018-05-12T19:23:43.437Z,100680.63
2018-05-12T19:26:12.090Z,100678.16
2018-05-12T19:28:40.765Z,100682.63
2018-05-12T19:31:09.439Z,100684.62
2018-05-12T19:33:38.144Z,100687.87
2018-05-12T19:36:06.814Z,100682.59
2018-05-12T19:38:35.510Z,100689.99
2018-05-12T19:41:04.190Z,100677.52
2018-05-12T19:43:32.875Z,100680.14
2018-05-12T19:46:01.578Z,100678.25
2018-05-12T19:48:30.288Z,100674.19
2018-05-12T19:50:59.033Z,100673.23
2018-05-12T19:53:27.768Z,100673.47
2018-05-12T19:55:56.457Z,100678.42
2018-05-12T19:58:25.320Z,100671.77
2018-05-12T20:00:53.964Z,100679.02
2018-05-12T20:03:22.634Z,100680.23
2018-05-12T20:05:51.314Z,100680.91
2018-05-12T20:08:20.044Z,100679.41
2018-05-12T20:10:48.639Z,100692.09
2018-05-12T20:13:21.162Z,100687.96
2018-05-12T20:15:49.864Z,100688.03
2018-05-12T20:18:18.590Z,100686.39
2018-05-12T20:20:47.276Z,100685.03
2018-05-12T20:23:16.014Z,100683.61
2018-05-12T20:25:44.719Z,100683.21
2018-05-12T20:28:13.465Z,100681.56
2018-05-12T20:30:42.181Z,100676.89
2018-05-12T20:33:10.912Z,100682.55
2018-05-12T20:35:39.555Z,100687.78
2018-05-12T20:38:07.955Z,100685.24
2018-05-12T20:40:36.284Z,100681.86
2018-05-12T20:43:04.659Z,100689.19
2018-05-12T20:45:32.984Z,100682.71
2018-05-12T20:48:01.355Z,100689.55
2018-05-12T20:50:29.693Z,100683.80
2018-05-12T20:52:58.057Z,100678.13
2018-05-12T20:55:26.396Z,100678.80
2018-05-12T20:57:54.728Z,100676.83
2018-05-12T21:00:24.085Z,100677.16
2018-05-12T21:02:52.426Z,100672.84
2018-05-12T21:05:20.785Z,100676.38
2018-05-12T21:07:49.138Z,100678.20
2018-05-12T21:10:17.489Z,100667.97
2018-05-12T21:12:45.820Z,100668.59
2018-05-12T21:15:14.196Z,100666.44
2018-05-12T21:17:42.529Z,100663.92
2018-05-12T21:20:10.885Z,100667.13
2018-05-12T21:22:39.220Z,100664.97
2018-05-12T21:25:07.590Z,100662.08
2018-05-12T21:27:35.933Z,100653.62
2018-05-12T21:30:04.301Z,100662.91
2018-05-12T21:32:32.645Z,100645.97
2018-05-12T21:35:01.000Z,100655.15
2018-05-12T21:37:29.344Z,100653.05
2018-05-12T21:39:58.529Z,100650.07
2018-05-12T21:42:26.866Z,100651.45
2018-05-12T21:44:55.248Z,100654.91
2018-05-12T21:47:23.576Z,100651.92
2018-05-12T21:49:51.943Z,100659.23
2018-05-12T21:52:20.273Z,100650.25
2018-05-12T21:54:48.633Z,100646.13
2018-05-12T21:57:16.971Z,100647.05
2018-05-12T21:59:45.329Z,100653.03
2018-05-12T22:02:13.669Z,100648.28
2018-05-12T22:04:42.029Z,100643.97
2018-05-12T22:07:10.365Z,100650.00
2018-05-12T22:09:38.728Z,100645.89
2018-05-12T22:12:07.069Z,100637.29
2018-05-12T22:14:35.420Z,100643.55
2018-05-12T22:17:03.764Z,100643.25
2018-05-12T22:19:32.821Z,100629.91
2018-05-12T22:22:01.157Z,100630.71
2018-05-12T22:24:29.516Z,100631.14
2018-05-12T22:26:57.856Z,100630.33
2018-05-12T22:29:26.213Z,100629.30
2018-05-12T22:31:54.552Z,100623.71
2018-05-12T22:34:22.905Z,100619.83
2018-05-12T22:36:51.249Z,100617.73
2018-05-12T22:39:19.609Z,100627.52
2018-05-12T22:41:48.930Z,100619.71
2018-05-12T22:44:17.285Z,100621.06
2018-05-12T22:46:45.624Z,100626.64
2018-05-12T22:49:13.980Z,100623.71
2018-05-12T22:51:42.325Z,100624.19
2018-05-12T22:54:10.680Z,100624.73
2018-05-12T22:56:39.020Z,100626.47
2018-05-12T22:59:07.388Z,100616.67
2018-05-12T23:01:35.716Z,100617.19
2018-05-12T23:04:04.127Z,100616.37
2018-05-12T23:06:32.425Z,100615.05
2018-05-12T23:09:00.763Z,100613.73
2018-05-12T23:11:29.115Z,100612.03
2018-05-12T23:13:57.440Z,100612.89
2018-05-12T23:16:25.796Z,100614.18
2018-05-12T23:18:54.141Z,100622.76
2018-05-12T23:21:22.497Z,100615.03
2018-05-12T23:23:50.825Z,100617.12
2018-05-12T23:26:19.188Z,100614.28
2018-05-12T23:28:47.521Z,100613.91
2018-05-12T23:31:15.881Z,100610.90
2018-05-12T23:33:44.207Z,100615.62
2018-05-12T23:36:12.564Z,100610.91
2018-05-12T23:38:40.900Z,100612.23
2018-05-12T23:41:09.261Z,100604.97
2018-05-12T23:43:37.593Z,100604.11
2018-05-12T23:46:05.961Z,100602.87
2018-05-12T23:48:34.301Z,100601.11
2018-05-12T23:51:02.658Z,100601.58
2018-05-12T23:53:30.992Z,100611.90
2018-05-12T23:55:59.348Z,100602.82
2018-05-12T23:58:27.686Z,100606.17
